createdAt,value
2022-10-22T00:00:16.400Z,69.60
2022-10-22T00:01:16.371Z,69.29
2022-10-22T00:02:16.365Z,70.18
2022-10-22T00:03:16.376Z,70.18
2022-10-22T00:04:16.333Z,69.16
2022-10-22T00:05:16.316Z,70.07
2022-10-22T00:06:16.314Z,69.77
2022-10-22T00:07:16.303Z,69.67
2022-10-22T00:08:16.284Z,69.97
2022-10-22T00:09:16.411Z,69.36
2022-10-22T00:10:16.261Z,69.33
2022-10-22T00:11:16.252Z,70.04
2022-10-22T00:12:16.238Z,69.33
2022-10-22T00:13:16.232Z,69.33
2022-10-22T00:14:16.221Z,69.33
2022-10-22T00:15:16.238Z,69.53
2022-10-22T00:16:16.247Z,69.33
2022-10-22T00:17:16.182Z,69.74
2022-10-22T00:18:16.169Z,69.64
2022-10-22T00:19:16.161Z,69.60
2022-10-22T00:20:16.154Z,69.81
2022-10-22T00:21:16.152Z,69.70
2022-10-22T00:22:16.142Z,69.70
2022-10-22T00:23:16.639Z,69.60
2022-10-22T00:24:16.103Z,68.79
2022-10-22T00:25:16.115Z,69.57
2022-10-22T00:26:16.080Z,69.47
2022-10-22T00:27:16.125Z,69.37
2022-10-22T00:28:16.060Z,69.17
2022-10-22T00:29:16.044Z,69.37
2022-10-22T00:30:16.036Z,69.37
2022-10-22T00:31:16.030Z,69.37
2022-10-22T00:32:16.034Z,69.06
2022-10-22T00:33:16.035Z,69.37
2022-10-22T00:34:15.996Z,69.37
2022-10-22T00:35:15.982Z,69.17
2022-10-22T00:36:15.965Z,69.06
2022-10-22T00:37:15.959Z,69.03
2022-10-22T00:38:15.944Z,68.96
2022-10-22T00:39:15.974Z,68.83
2022-10-22T00:40:15.919Z,69.17
2022-10-22T00:41:15.919Z,68.76
2022-10-22T00:42:15.905Z,68.76
2022-10-22T00:43:15.999Z,68.73
2022-10-22T00:44:15.875Z,69.13
2022-10-22T00:45:15.908Z,69.13
2022-10-22T00:46:15.861Z,69.26
2022-10-22T00:47:15.930Z,68.93
2022-10-22T00:48:15.851Z,68.76
2022-10-22T00:49:15.825Z,68.76
2022-10-22T00:50:15.805Z,68.76
2022-10-22T00:51:15.832Z,68.73
2022-10-22T00:52:15.789Z,68.93
2022-10-22T00:53:15.772Z,68.83
2022-10-22T00:54:15.779Z,68.73
2022-10-22T00:55:15.752Z,69.17
2022-10-22T00:56:15.743Z,68.86
2022-10-22T00:57:15.756Z,68.83
2022-10-22T00:58:15.712Z,68.83
2022-10-22T00:59:15.710Z,68.86
2022-10-22T01:00:15.718Z,68.76
2022-10-22T01:01:15.741Z,68.86
2022-10-22T01:02:15.669Z,68.76
2022-10-22T01:03:15.692Z,68.76
2022-10-22T01:04:15.669Z,68.86
2022-10-22T01:05:15.647Z,68.76
2022-10-22T01:06:15.623Z,69.37
2022-10-22T01:07:15.611Z,68.86
2022-10-22T01:08:15.633Z,68.86
2022-10-22T01:09:15.606Z,68.76
2022-10-22T01:10:15.581Z,68.86
2022-10-22T01:11:15.565Z,68.76
2022-10-22T01:12:15.556Z,68.86
2022-10-22T01:13:15.547Z,68.86
2022-10-22T01:14:15.532Z,68.86
2022-10-22T01:15:15.542Z,68.86
2022-10-22T01:16:15.510Z,68.96
2022-10-22T01:17:15.592Z,68.96
2022-10-22T01:18:15.488Z,68.86
2022-10-22T01:19:15.479Z,68.86
2022-10-22T01:20:15.489Z,68.96
2022-10-22T01:21:15.510Z,68.76
2022-10-22T01:22:15.442Z,68.76
2022-10-22T01:23:15.430Z,68.76
2022-10-22T01:24:15.417Z,68.96
2022-10-22T01:25:15.405Z,68.83
2022-10-22T01:26:15.487Z,68.83
2022-10-22T01:27:15.419Z,69.06
2022-10-22T01:28:15.375Z,69.37
2022-10-22T01:29:15.362Z,69.37
2022-10-22T01:30:15.355Z,69.37
2022-10-22T01:31:15.335Z,69.23
2022-10-22T01:32:15.329Z,69.23
2022-10-22T01:33:15.370Z,69.34
2022-10-22T01:34:15.308Z,69.23
2022-10-22T01:35:15.300Z,69.03
2022-10-22T01:36:15.329Z,69.34
2022-10-22T01:37:15.266Z,69.34
2022-10-22T01:38:15.269Z,69.23
2022-10-22T01:39:15.312Z,69.34
2022-10-22T01:40:15.241Z,69.17
2022-10-22T01:41:15.225Z,69.13
2022-10-22T01:42:15.211Z,69.13
2022-10-22T01:43:15.206Z,69.13
2022-10-22T01:44:15.188Z,69.23
2022-10-22T01:45:15.197Z,69.23
2022-10-22T01:46:15.168Z,69.23
2022-10-22T01:47:15.175Z,69.34
2022-10-22T01:48:15.165Z,69.23
2022-10-22T01:49:15.167Z,69.13
2022-10-22T01:50:15.159Z,69.13
2022-10-22T01:51:15.120Z,69.23
2022-10-22T01:52:15.144Z,69.13
2022-10-22T01:53:15.111Z,69.13
2022-10-22T01:54:15.076Z,69.23
2022-10-22T01:55:15.071Z,69.74
2022-10-22T01:56:15.058Z,69.23
2022-10-22T01:57:15.079Z,69.23
2022-10-22T01:58:15.107Z,69.43
2022-10-22T01:59:15.030Z,69.43
2022-10-22T02:00:15.032Z,69.23
2022-10-22T02:01:15.036Z,69.34
2022-10-22T02:02:14.990Z,69.43
2022-10-22T02:03:17.488Z,69.34
2022-10-22T02:04:15.985Z,69.43
2022-10-22T02:05:14.957Z,69.34
2022-10-22T02:06:14.946Z,69.34
2022-10-22T02:07:14.985Z,69.13
2022-10-22T02:08:14.941Z,69.26
2022-10-22T02:09:14.981Z,69.13
2022-10-22T02:10:14.897Z,69.23
2022-10-22T02:11:14.921Z,69.23
2022-10-22T02:12:14.883Z,69.37
2022-10-22T02:13:14.888Z,69.37
2022-10-22T02:14:14.859Z,69.23
2022-10-22T02:15:14.852Z,69.17
2022-10-22T02:16:14.852Z,69.47
2022-10-22T02:17:14.886Z,69.34
2022-10-22T02:18:14.803Z,69.34
2022-10-22T02:19:14.829Z,69.34
2022-10-22T02:20:14.786Z,69.26
2022-10-22T02:21:14.811Z,69.26
2022-10-22T02:22:14.814Z,69.26
2022-10-22T02:23:14.755Z,69.26
2022-10-22T02:24:14.778Z,69.26
2022-10-22T02:25:14.759Z,69.37
2022-10-22T02:26:14.718Z,69.17
2022-10-22T02:27:14.756Z,69.17
2022-10-22T02:28:14.712Z,69.37
2022-10-22T02:29:14.685Z,69.37
2022-10-22T02:30:17.716Z,69.26
2022-10-22T02:31:14.666Z,69.37
2022-10-22T02:32:14.727Z,69.37
2022-10-22T02:33:14.662Z,69.17
2022-10-22T02:34:14.631Z,69.37
2022-10-22T02:35:14.627Z,69.37
2022-10-22T02:36:14.601Z,69.37
2022-10-22T02:37:14.592Z,69.26
2022-10-22T02:38:14.591Z,69.17
2022-10-22T02:39:14.621Z,69.13
2022-10-22T02:40:14.619Z,69.37
2022-10-22T02:41:14.565Z,69.17
2022-10-22T02:42:14.533Z,69.47
2022-10-22T02:43:14.574Z,69.26
2022-10-22T02:44:14.515Z,69.13
2022-10-22T02:45:14.519Z,69.17
2022-10-22T02:46:14.530Z,69.37
2022-10-22T02:47:14.481Z,69.37
2022-10-22T02:48:14.520Z,69.37
2022-10-22T02:49:14.495Z,69.37
2022-10-22T02:50:14.459Z,69.37
2022-10-22T02:51:14.506Z,69.17
2022-10-22T02:52:14.428Z,68.45
2022-10-22T02:53:14.409Z,69.47
2022-10-22T02:54:14.404Z,69.47
2022-10-22T02:55:14.396Z,69.26
2022-10-22T02:56:14.419Z,69.34
2022-10-22T02:57:14.495Z,68.55
2022-10-22T02:58:14.355Z,68.76
2022-10-22T02:59:14.368Z,68.86
2022-10-22T03:00:14.399Z,68.66
2022-10-22T03:01:16.160Z,68.73
2022-10-22T03:02:14.309Z,68.76
2022-10-22T03:03:14.317Z,68.66
2022-10-22T03:04:14.286Z,68.96
2022-10-22T03:05:14.305Z,68.96
2022-10-22T03:06:14.313Z,68.86
2022-10-22T03:07:14.251Z,68.86
2022-10-22T03:08:14.249Z,68.96
2022-10-22T03:09:14.311Z,68.66
2022-10-22T03:10:14.229Z,68.76
2022-10-22T03:11:14.214Z,68.86
2022-10-22T03:12:14.222Z,68.76
2022-10-22T03:13:14.194Z,68.76
2022-10-22T03:14:14.245Z,68.59
2022-10-22T03:15:14.207Z,68.55
2022-10-22T03:16:14.158Z,68.76
2022-10-22T03:17:14.144Z,68.76
2022-10-22T03:18:14.130Z,68.59
2022-10-22T03:19:14.195Z,68.79
2022-10-22T03:20:14.105Z,68.59
2022-10-22T03:21:14.111Z,68.89
2022-10-22T03:22:14.086Z,69.70
2022-10-22T03:23:14.075Z,68.59
2022-10-22T03:24:14.064Z,69.30
2022-10-22T03:25:14.051Z,69.50
2022-10-22T03:26:14.070Z,69.53
2022-10-22T03:27:14.048Z,68.72
2022-10-22T03:28:14.041Z,69.53
2022-10-22T03:29:14.008Z,69.74
2022-10-22T03:30:13.995Z,69.64
2022-10-22T03:31:13.986Z,69.43
2022-10-22T03:32:13.978Z,69.46
2022-10-22T03:33:13.992Z,69.43
2022-10-22T03:34:13.953Z,69.46
2022-10-22T03:35:13.933Z,69.26
2022-10-22T03:36:13.930Z,69.36
2022-10-22T03:37:13.931Z,68.85
2022-10-22T03:38:13.904Z,68.96
2022-10-22T03:39:13.929Z,68.96
2022-10-22T03:40:13.883Z,69.06
2022-10-22T03:41:13.873Z,68.82
2022-10-22T03:42:13.852Z,68.85
2022-10-22T03:43:13.849Z,68.96
2022-10-22T03:44:13.857Z,68.96
2022-10-22T03:45:13.845Z,68.96
2022-10-22T03:46:13.842Z,68.99
2022-10-22T03:47:13.797Z,69.09
2022-10-22T03:48:13.811Z,69.09
2022-10-22T03:49:13.775Z,69.23
2022-10-22T03:50:13.772Z,69.12
2022-10-22T03:51:13.827Z,69.02
2022-10-22T03:52:13.739Z,69.12
2022-10-22T03:53:13.737Z,69.26
2022-10-22T03:54:13.735Z,69.36
2022-10-22T03:55:13.712Z,69.67
2022-10-22T03:56:13.696Z,68.98
2022-10-22T03:57:13.715Z,69.80
2022-10-22T03:58:13.677Z,69.80
2022-10-22T03:59:13.657Z,69.80
2022-10-22T04:00:13.683Z,70.04
2022-10-22T04:01:13.707Z,69.83
2022-10-22T04:02:13.637Z,69.53
2022-10-22T04:03:13.636Z,69.42
2022-10-22T04:04:13.606Z,69.56
2022-10-22T04:06:13.580Z,70.17
2022-10-22T04:07:13.575Z,69.86
2022-10-22T04:08:13.565Z,69.69
2022-10-22T04:09:13.691Z,69.90
2022-10-22T04:10:13.537Z,70.10
2022-10-22T04:11:13.534Z,70.44
2022-10-22T04:12:13.519Z,70.51
2022-10-22T04:13:13.504Z,70.64
2022-10-22T04:14:13.493Z,70.34
2022-10-22T04:15:13.492Z,70.34
2022-10-22T04:16:13.498Z,70.34
2022-10-22T04:17:13.459Z,69.82
2022-10-22T04:18:13.466Z,69.65
2022-10-22T04:19:13.435Z,70.78
2022-10-22T04:20:13.418Z,70.06
2022-10-22T04:21:13.454Z,70.06
2022-10-22T04:22:13.401Z,69.96
2022-10-22T04:23:13.490Z,70.81
2022-10-22T04:24:13.382Z,70.10
2022-10-22T04:25:13.401Z,70.20
2022-10-22T04:26:13.358Z,70.61
2022-10-22T04:27:13.357Z,70.40
2022-10-22T04:28:13.328Z,70.51
2022-10-22T04:29:16.052Z,70.30
2022-10-22T04:30:13.336Z,70.40
2022-10-22T04:31:13.299Z,70.54
2022-10-22T04:32:13.315Z,70.54
2022-10-22T04:33:13.308Z,70.84
2022-10-22T04:34:13.274Z,70.34
2022-10-22T04:35:13.286Z,70.84
2022-10-22T04:36:13.241Z,70.57
2022-10-22T04:37:13.233Z,70.84
2022-10-22T04:38:13.226Z,70.78
2022-10-22T04:39:13.217Z,70.26
2022-10-22T04:40:13.231Z,70.67
2022-10-22T04:41:13.181Z,70.78
2022-10-22T04:42:13.210Z,70.57
2022-10-22T04:43:13.167Z,70.67
2022-10-22T04:44:15.880Z,70.78
2022-10-22T04:45:13.183Z,70.57
2022-10-22T04:46:13.128Z,70.57
2022-10-22T04:47:13.207Z,70.98
2022-10-22T04:48:13.131Z,70.78
2022-10-22T04:49:13.093Z,71.08
2022-10-22T04:50:13.085Z,70.78
2022-10-22T04:51:13.100Z,70.67
2022-10-22T04:52:13.058Z,70.67
2022-10-22T04:53:13.046Z,70.67
2022-10-22T04:54:14.851Z,70.47
2022-10-22T04:55:13.178Z,70.26
2022-10-22T04:56:13.011Z,70.26
2022-10-22T04:57:13.020Z,70.29
2022-10-22T04:58:12.989Z,70.91
2022-10-22T04:59:12.980Z,70.47
2022-10-22T05:00:12.968Z,70.40
2022-10-22T05:01:12.990Z,70.61
2022-10-22T05:02:12.971Z,70.29
2022-10-22T05:03:12.945Z,70.61
2022-10-22T05:04:12.980Z,70.50
2022-10-22T05:05:12.914Z,70.40
2022-10-22T05:07:12.924Z,70.71
2022-10-22T05:08:12.871Z,70.09
2022-10-22T05:09:12.946Z,70.53
2022-10-22T05:10:12.849Z,70.43
2022-10-22T05:11:12.872Z,70.57
2022-10-22T05:12:12.832Z,70.74
2022-10-22T05:13:12.837Z,70.98
2022-10-22T05:14:12.812Z,70.77
2022-10-22T05:15:12.826Z,70.64
2022-10-22T05:16:12.819Z,70.67
2022-10-22T05:17:12.775Z,70.47
2022-10-22T05:18:12.760Z,70.36
2022-10-22T05:19:12.758Z,70.67
2022-10-22T05:20:12.758Z,70.16
2022-10-22T05:21:12.885Z,70.33
2022-10-22T05:22:12.717Z,70.26
2022-10-22T05:23:12.708Z,70.06
2022-10-22T05:24:12.698Z,70.16
2022-10-22T05:25:12.681Z,70.16
2022-10-22T05:26:12.688Z,70.06
2022-10-22T05:27:12.740Z,70.87
2022-10-22T05:28:12.643Z,70.06
2022-10-22T05:29:12.636Z,70.98
2022-10-22T05:30:12.625Z,70.77
2022-10-22T05:31:12.612Z,70.16
2022-10-22T05:32:12.604Z,70.06
2022-10-22T05:33:12.672Z,70.57
2022-10-22T05:34:12.580Z,70.67
2022-10-22T05:35:12.568Z,70.67
2022-10-22T05:36:12.604Z,70.67
2022-10-22T05:37:12.545Z,70.12
2022-10-22T05:38:12.534Z,70.67
2022-10-22T05:39:12.549Z,70.77
2022-10-22T05:40:26.373Z,69.71
2022-10-22T05:41:13.516Z,70.12
2022-10-22T05:42:12.490Z,70.33
2022-10-22T05:43:12.477Z,70.23
2022-10-22T05:44:12.464Z,70.40
2022-10-22T05:45:12.486Z,69.68
2022-10-22T05:46:12.455Z,69.79
2022-10-22T05:47:12.424Z,69.79
2022-10-22T05:48:12.420Z,69.79
2022-10-22T05:49:12.411Z,69.89
2022-10-22T05:50:12.397Z,69.75
2022-10-22T05:51:12.396Z,70.26
2022-10-22T05:52:12.413Z,70.26
2022-10-22T05:53:12.389Z,70.06
2022-10-22T05:54:12.350Z,70.16
2022-10-22T05:55:12.342Z,69.55
2022-10-22T05:56:12.335Z,69.93
2022-10-22T05:57:12.331Z,69.82
2022-10-22T05:58:12.301Z,69.31
2022-10-22T05:59:12.300Z,69.72
2022-10-22T06:00:14.268Z,69.72
2022-10-22T06:01:12.274Z,69.93
2022-10-22T06:02:12.313Z,69.69
2022-10-22T06:03:12.314Z,70.00
2022-10-22T06:04:12.242Z,70.23
2022-10-22T06:05:12.244Z,70.03
2022-10-22T06:06:12.216Z,70.03
2022-10-22T06:07:12.246Z,69.59
2022-10-22T06:08:15.607Z,69.82
2022-10-22T06:09:13.266Z,69.69
2022-10-22T06:10:12.196Z,69.82
2022-10-22T06:11:12.193Z,69.72
2022-10-22T06:12:12.150Z,69.72
2022-10-22T06:13:12.132Z,70.00
2022-10-22T06:14:12.130Z,70.30
2022-10-22T06:15:12.138Z,70.10
2022-10-22T06:16:12.805Z,70.30
2022-10-22T06:17:12.097Z,70.54
2022-10-22T06:18:12.075Z,70.00
2022-10-22T06:19:12.092Z,70.13
2022-10-22T06:20:12.052Z,70.00
2022-10-22T06:21:12.077Z,70.20
2022-10-22T06:22:12.031Z,70.23
2022-10-22T06:23:12.053Z,69.79
2022-10-22T06:24:12.064Z,70.23
2022-10-22T06:25:12.027Z,69.72
2022-10-22T06:26:11.984Z,70.64
2022-10-22T06:27:11.983Z,70.51
2022-10-22T06:28:11.992Z,70.51
2022-10-22T06:29:11.949Z,70.23
2022-10-22T06:30:11.945Z,69.89
2022-10-22T06:31:11.929Z,70.23
2022-10-22T06:32:11.928Z,70.23
2022-10-22T06:33:11.921Z,70.00
2022-10-22T06:34:11.914Z,70.03
2022-10-22T06:35:11.883Z,70.23
2022-10-22T06:36:11.874Z,70.20
2022-10-22T06:37:11.862Z,70.51
2022-10-22T06:38:11.873Z,69.62
2022-10-22T06:39:11.860Z,70.23
2022-10-22T06:40:11.848Z,70.03
2022-10-22T06:41:11.819Z,70.10
2022-10-22T06:42:11.807Z,70.20
2022-10-22T06:43:11.789Z,70.54
2022-10-22T06:44:11.783Z,69.69
2022-10-22T06:45:11.786Z,70.30
2022-10-22T06:46:14.777Z,69.59
2022-10-22T06:47:12.751Z,69.65
2022-10-22T06:48:11.754Z,69.69
2022-10-22T06:49:11.721Z,69.65
2022-10-22T06:50:11.755Z,70.17
2022-10-22T06:51:11.721Z,70.06
2022-10-22T06:52:11.695Z,69.96
2022-10-22T06:53:11.730Z,69.52
2022-10-22T06:54:11.665Z,69.73
2022-10-22T06:55:11.660Z,69.32
2022-10-22T06:56:11.666Z,69.32
2022-10-22T06:57:11.648Z,69.52
2022-10-22T06:58:11.642Z,69.73
2022-10-22T06:59:11.615Z,69.79
2022-10-22T07:00:11.604Z,70.00
2022-10-22T07:01:11.718Z,70.00
2022-10-22T07:02:11.577Z,69.59
2022-10-22T07:03:11.605Z,68.84
2022-10-22T07:04:11.551Z,68.84
2022-10-22T07:05:11.545Z,69.15
2022-10-22T07:06:11.532Z,69.02
2022-10-22T07:07:11.520Z,69.42
2022-10-22T07:08:11.513Z,69.22
2022-10-22T07:09:11.698Z,69.53
2022-10-22T07:10:11.507Z,69.59
2022-10-22T07:11:11.476Z,69.19
2022-10-22T07:12:11.486Z,69.49
2022-10-22T07:13:11.456Z,69.29
2022-10-22T07:14:11.442Z,69.39
2022-10-22T07:15:11.462Z,69.36
2022-10-22T07:16:11.415Z,69.06
2022-10-22T07:17:11.408Z,69.46
2022-10-22T07:18:11.415Z,69.36
2022-10-22T07:19:11.393Z,68.92
2022-10-22T07:20:11.366Z,69.12
2022-10-22T07:21:11.399Z,69.29
2022-10-22T07:22:11.351Z,68.99
2022-10-22T07:23:11.335Z,69.29
2022-10-22T07:24:11.346Z,69.40
2022-10-22T07:25:11.312Z,69.26
2022-10-22T07:26:11.325Z,69.26
2022-10-22T07:27:11.898Z,69.36
2022-10-22T07:28:11.319Z,69.26
2022-10-22T07:29:11.270Z,69.16
2022-10-22T07:30:11.254Z,69.26
2022-10-22T07:31:11.244Z,69.36
2022-10-22T07:32:11.240Z,68.96
2022-10-22T07:33:11.254Z,69.36
2022-10-22T07:34:11.318Z,69.43
2022-10-22T07:35:11.202Z,69.33
2022-10-22T07:36:11.191Z,69.33
2022-10-22T07:37:11.179Z,69.30
2022-10-22T07:38:11.188Z,69.09
2022-10-22T07:39:11.172Z,69.30
2022-10-22T07:40:11.141Z,68.89
2022-10-22T07:41:11.249Z,69.26
2022-10-22T07:42:11.121Z,69.26
2022-10-22T07:43:11.135Z,68.35
2022-10-22T07:44:11.117Z,68.52
2022-10-22T07:45:11.098Z,68.32
2022-10-22T07:46:11.094Z,68.22
2022-10-22T07:47:11.059Z,69.03
2022-10-22T07:48:11.147Z,68.19
2022-10-22T07:49:11.034Z,68.52
2022-10-22T07:50:11.032Z,68.49
2022-10-22T07:51:11.125Z,68.49
2022-10-22T07:52:11.008Z,68.29
2022-10-22T07:53:11.003Z,68.29
2022-10-22T07:54:10.998Z,68.46
2022-10-22T07:55:10.974Z,68.56
2022-10-22T07:56:10.956Z,68.02
2022-10-22T07:57:10.979Z,67.92
2022-10-22T07:58:10.934Z,67.68
2022-10-22T07:59:10.930Z,68.19
2022-10-22T08:00:10.940Z,68.70
2022-10-22T08:01:10.981Z,68.60
2022-10-22T08:02:10.886Z,68.26
2022-10-22T08:03:10.916Z,68.16
2022-10-22T08:04:10.866Z,68.66
2022-10-22T08:05:10.859Z,67.96
2022-10-22T08:06:10.844Z,67.76
2022-10-22T08:07:10.832Z,68.02
2022-10-22T08:08:10.824Z,67.93
2022-10-22T08:09:10.971Z,67.99
2022-10-22T08:10:10.797Z,67.99
2022-10-22T08:11:10.887Z,67.96
2022-10-22T08:12:10.784Z,67.46
2022-10-22T08:13:10.766Z,67.63
2022-10-22T08:14:10.761Z,67.32
2022-10-22T08:15:10.868Z,67.22
2022-10-22T08:16:10.760Z,67.12
2022-10-22T08:17:10.759Z,67.19
2022-10-22T08:18:10.703Z,66.99
2022-10-22T08:19:10.699Z,66.89
2022-10-22T08:20:10.713Z,67.16
2022-10-22T08:21:10.709Z,67.26
2022-10-22T08:22:10.661Z,67.06
2022-10-22T08:23:10.655Z,67.06
2022-10-22T08:24:10.651Z,67.26
2022-10-22T08:25:10.655Z,66.96
2022-10-22T08:26:10.617Z,67.06
2022-10-22T08:27:10.628Z,66.93
2022-10-22T08:28:10.770Z,67.02
2022-10-22T08:29:10.580Z,67.13
2022-10-22T08:30:10.569Z,66.93
2022-10-22T08:31:10.559Z,66.93
2022-10-22T08:32:10.571Z,67.02
2022-10-22T08:33:10.597Z,66.99
2022-10-22T08:34:10.524Z,67.10
2022-10-22T08:35:12.985Z,66.82
2022-10-22T08:36:10.541Z,67.13
2022-10-22T08:37:10.495Z,66.99
2022-10-22T08:38:10.474Z,66.99
2022-10-22T08:39:10.502Z,67.10
2022-10-22T08:40:10.455Z,66.99
2022-10-22T08:41:10.470Z,66.79
2022-10-22T08:42:10.436Z,67.19
2022-10-22T08:43:10.419Z,66.96
2022-10-22T08:44:10.410Z,66.96
2022-10-22T08:45:10.437Z,66.76
2022-10-22T08:46:10.388Z,66.96
2022-10-22T08:47:10.379Z,66.86
2022-10-22T08:48:10.418Z,66.76
2022-10-22T08:49:10.360Z,66.73
2022-10-22T08:50:10.359Z,66.83
2022-10-22T08:51:10.365Z,66.83
2022-10-22T08:52:10.337Z,66.73
2022-10-22T08:53:10.309Z,66.83
2022-10-22T08:54:10.299Z,66.83
2022-10-22T08:55:10.285Z,66.90
2022-10-22T08:56:10.285Z,67.10
2022-10-22T08:57:10.294Z,67.00
2022-10-22T08:58:10.269Z,66.90
2022-10-22T08:59:10.239Z,67.00
2022-10-22T09:00:10.225Z,66.90
2022-10-22T09:01:10.218Z,66.97
2022-10-22T09:02:10.203Z,66.87
2022-10-22T09:03:10.210Z,66.70
2022-10-22T09:04:10.203Z,66.67
2022-10-22T09:05:12.277Z,66.87
2022-10-22T09:06:10.160Z,66.87
2022-10-22T09:07:10.146Z,66.80
2022-10-22T09:08:10.172Z,66.97
2022-10-22T09:09:10.243Z,66.87
2022-10-22T09:10:10.116Z,67.07
2022-10-22T09:11:10.096Z,67.07
2022-10-22T09:12:10.091Z,66.77
2022-10-22T09:13:10.085Z,66.87
2022-10-22T09:14:10.112Z,66.87
2022-10-22T09:15:10.098Z,66.97
2022-10-22T09:16:10.040Z,66.87
2022-10-22T09:17:10.034Z,66.83
2022-10-22T09:18:10.027Z,66.63
2022-10-22T09:19:10.008Z,66.94
2022-10-22T09:20:10.124Z,66.74
2022-10-22T09:21:10.002Z,66.60
2022-10-22T09:22:09.974Z,66.71
2022-10-22T09:23:09.974Z,66.50
2022-10-22T09:24:09.948Z,66.91
2022-10-22T09:25:09.944Z,66.71
2022-10-22T09:26:09.933Z,66.71
2022-10-22T09:27:09.934Z,67.00
2022-10-22T09:28:09.913Z,66.91
2022-10-22T09:29:09.960Z,67.00
2022-10-22T09:30:09.886Z,66.63
2022-10-22T09:31:09.878Z,67.03
2022-10-22T09:32:09.868Z,67.54
2022-10-22T09:33:09.866Z,67.34
2022-10-22T09:34:09.843Z,67.44
2022-10-22T09:35:09.830Z,67.24
2022-10-22T09:36:09.841Z,67.24
2022-10-22T09:37:09.807Z,67.14
2022-10-22T09:38:09.935Z,66.94
2022-10-22T09:39:09.857Z,66.91
2022-10-22T09:40:09.775Z,66.80
2022-10-22T09:41:09.766Z,66.60
2022-10-22T09:42:09.750Z,66.57
2022-10-22T09:43:09.765Z,66.37
2022-10-22T09:44:09.732Z,66.67
2022-10-22T09:45:09.744Z,66.37
2022-10-22T09:46:09.708Z,66.34
2022-10-22T09:47:09.691Z,65.94
2022-10-22T09:48:09.678Z,66.03
2022-10-22T09:49:09.673Z,65.80
2022-10-22T09:50:09.656Z,65.60
2022-10-22T09:51:09.750Z,65.60
2022-10-22T09:52:09.662Z,65.77
2022-10-22T09:53:09.647Z,65.74
2022-10-22T09:54:09.617Z,65.34
2022-10-22T09:55:09.603Z,65.44
2022-10-22T09:56:09.667Z,65.34
2022-10-22T09:57:09.606Z,65.51
2022-10-22T09:58:09.569Z,65.31
2022-10-22T09:59:09.554Z,65.41
2022-10-22T10:00:09.547Z,65.18
2022-10-22T10:01:09.533Z,65.01
2022-10-22T10:02:19.742Z,65.18
2022-10-22T10:03:10.590Z,65.08
2022-10-22T10:04:10.109Z,65.18
2022-10-22T10:05:09.491Z,65.08
2022-10-22T10:06:09.478Z,65.08
2022-10-22T10:07:09.461Z,65.18
2022-10-22T10:08:09.528Z,65.38
2022-10-22T10:09:09.520Z,65.38
2022-10-22T10:10:09.429Z,65.48
2022-10-22T10:11:09.442Z,65.28
2022-10-22T10:12:09.407Z,65.48
2022-10-22T10:13:09.395Z,65.38
2022-10-22T10:14:09.386Z,65.38
2022-10-22T10:15:09.400Z,65.31
2022-10-22T10:16:10.332Z,65.51
2022-10-22T10:17:09.353Z,65.61
2022-10-22T10:18:09.338Z,65.71
2022-10-22T10:19:09.327Z,65.71
2022-10-22T10:20:09.316Z,65.61
2022-10-22T10:21:09.385Z,65.81
2022-10-22T10:22:09.296Z,65.91
2022-10-22T10:23:09.330Z,65.91
2022-10-22T10:24:09.299Z,65.94
2022-10-22T10:25:09.285Z,66.24
2022-10-22T10:26:09.245Z,65.97
2022-10-22T10:27:09.249Z,66.55
2022-10-22T10:28:09.257Z,66.47
2022-10-22T10:29:09.216Z,66.41
2022-10-22T10:30:09.209Z,66.17
2022-10-22T10:31:09.191Z,66.31
2022-10-22T10:32:09.176Z,66.41
2022-10-22T10:33:09.218Z,66.71
2022-10-22T10:34:09.156Z,66.71
2022-10-22T10:35:09.147Z,66.54
2022-10-22T10:36:09.134Z,66.64
2022-10-22T10:37:09.124Z,66.94
2022-10-22T10:38:09.147Z,66.57
2022-10-22T10:39:09.165Z,66.97
2022-10-22T10:40:09.117Z,67.07
2022-10-22T10:41:09.083Z,66.87
2022-10-22T10:42:09.063Z,66.87
2022-10-22T10:43:09.075Z,66.97
2022-10-22T10:44:09.043Z,67.47
2022-10-22T10:45:09.114Z,67.31
2022-10-22T10:46:09.045Z,67.31
2022-10-22T10:47:09.007Z,67.11
2022-10-22T10:48:09.001Z,67.31
2022-10-22T10:49:09.019Z,66.91
2022-10-22T10:50:08.979Z,67.11
2022-10-22T10:51:09.011Z,66.97
2022-10-22T10:52:08.956Z,66.80
2022-10-22T10:53:08.942Z,66.77
2022-10-22T10:54:08.941Z,66.57
2022-10-22T10:55:08.920Z,66.37
2022-10-22T10:56:08.960Z,66.34
2022-10-22T10:57:08.913Z,66.37
2022-10-22T10:58:08.885Z,66.24
2022-10-22T10:59:08.881Z,66.24
2022-10-22T11:00:08.865Z,66.34
2022-10-22T11:01:08.851Z,66.54
2022-10-22T11:02:08.850Z,66.34
2022-10-22T11:03:08.845Z,66.14
2022-10-22T11:04:08.824Z,66.14
2022-10-22T11:05:08.809Z,66.11
2022-10-22T11:06:08.795Z,66.00
2022-10-22T11:07:11.468Z,65.80
2022-10-22T11:08:09.803Z,65.91
2022-10-22T11:09:08.812Z,65.91
2022-10-22T11:10:08.751Z,65.70
2022-10-22T11:11:08.831Z,65.80
2022-10-22T11:12:08.783Z,65.70
2022-10-22T11:13:08.747Z,65.91
2022-10-22T11:14:08.760Z,65.91
2022-10-22T11:15:08.691Z,66.00
2022-10-22T11:16:08.700Z,65.91
2022-10-22T11:17:08.669Z,66.00
2022-10-22T11:18:08.665Z,66.11
2022-10-22T11:19:08.645Z,66.00
2022-10-22T11:20:08.674Z,66.24
2022-10-22T11:21:08.625Z,66.31
2022-10-22T11:22:08.614Z,66.00
2022-10-22T11:23:22.445Z,66.00
2022-10-22T11:24:09.588Z,65.91
2022-10-22T11:25:08.585Z,65.91
2022-10-22T11:26:08.610Z,66.00
2022-10-22T11:27:08.579Z,65.94
2022-10-22T11:28:11.252Z,66.00
2022-10-22T11:29:08.534Z,66.00
2022-10-22T11:30:08.529Z,66.00
2022-10-22T11:31:08.538Z,65.91
2022-10-22T11:32:08.582Z,66.00
2022-10-22T11:33:08.549Z,66.14
2022-10-22T11:34:31.891Z,66.34
2022-10-22T11:35:09.470Z,66.34
2022-10-22T11:36:08.455Z,66.34
2022-10-22T11:37:08.444Z,66.03
2022-10-22T11:38:08.472Z,66.14
2022-10-22T11:39:08.418Z,66.44
2022-10-22T11:40:08.420Z,66.24
2022-10-22T11:41:08.435Z,66.24
2022-10-22T11:42:08.394Z,66.14
2022-10-22T11:43:08.376Z,66.27
2022-10-22T11:44:08.408Z,66.27
2022-10-22T11:45:08.361Z,66.14
2022-10-22T11:46:08.348Z,66.37
2022-10-22T11:47:08.331Z,66.24
2022-10-22T11:48:08.322Z,66.17
2022-10-22T11:49:08.315Z,66.37
2022-10-22T11:50:08.469Z,66.47
2022-10-22T11:51:08.292Z,66.37
2022-10-22T11:52:08.273Z,66.27
2022-10-22T11:53:08.335Z,66.14
2022-10-22T11:54:08.278Z,65.94
2022-10-22T11:55:08.264Z,65.94
2022-10-22T11:56:08.269Z,66.14
2022-10-22T11:57:08.227Z,66.27
2022-10-22T11:58:08.206Z,66.47
2022-10-22T11:59:08.200Z,66.03
2022-10-22T12:00:08.207Z,66.17
2022-10-22T12:01:08.181Z,66.24
2022-10-22T12:02:08.203Z,66.24
2022-10-22T12:03:08.151Z,66.27
2022-10-22T12:04:08.198Z,66.37
2022-10-22T12:05:08.125Z,66.07
2022-10-22T12:06:08.119Z,66.27
2022-10-22T12:07:08.118Z,66.37
2022-10-22T12:08:11.167Z,66.14
2022-10-22T12:09:09.179Z,66.07
2022-10-22T12:10:08.282Z,66.17
2022-10-22T12:11:08.126Z,66.03
2022-10-22T12:12:08.067Z,66.17
2022-10-22T12:13:08.046Z,66.17
2022-10-22T12:14:08.060Z,66.37
2022-10-22T12:15:08.019Z,66.27
2022-10-22T12:16:11.575Z,66.27
2022-10-22T12:17:08.993Z,66.27
2022-10-22T12:18:08.042Z,66.57
2022-10-22T12:19:07.967Z,66.67
2022-10-22T12:20:08.057Z,66.37
2022-10-22T12:21:08.029Z,66.57
2022-10-22T12:22:07.940Z,66.57
2022-10-22T12:23:07.931Z,66.60
2022-10-22T12:24:07.912Z,66.60
2022-10-22T12:25:07.909Z,67.00
2022-10-22T12:26:07.921Z,66.80
2022-10-22T12:27:09.224Z,66.91
2022-10-22T12:28:07.880Z,66.74
2022-10-22T12:29:07.874Z,66.74
2022-10-22T12:30:07.915Z,66.63
2022-10-22T12:31:07.837Z,67.03
2022-10-22T12:32:07.932Z,66.94
2022-10-22T12:33:07.813Z,67.17
2022-10-22T12:34:07.798Z,66.83
2022-10-22T12:35:07.790Z,66.83
2022-10-22T12:36:07.782Z,66.77
2022-10-22T12:37:07.773Z,66.87
2022-10-22T12:38:07.770Z,66.97
2022-10-22T12:39:07.749Z,66.97
2022-10-22T12:40:07.736Z,67.07
2022-10-22T12:41:07.720Z,67.10
2022-10-22T12:42:07.715Z,67.00
2022-10-22T12:43:07.699Z,67.00
2022-10-22T12:44:07.711Z,67.60
2022-10-22T12:45:07.675Z,67.43
2022-10-22T12:46:07.667Z,67.03
2022-10-22T12:47:07.654Z,67.54
2022-10-22T12:48:07.663Z,67.43
2022-10-22T12:49:07.636Z,67.33
2022-10-22T12:50:07.629Z,67.33
2022-10-22T12:51:07.618Z,67.33
2022-10-22T12:52:09.766Z,67.33
2022-10-22T12:53:07.581Z,67.16
2022-10-22T12:54:07.577Z,67.67